sensor_id;sensor_type;location;lat;lon;timestamp;P1;durP1;ratioP1;P2;durP2;ratioP2
43962;SDS011;29622;45.534;9.242;2023-04-24T00:02:14;5.60;;;3.50;;
43962;SDS011;29622;45.534;9.242;2023-04-24T00:07:15;5.90;;;3.10;;
43962;SDS011;29622;45.534;9.242;2023-04-24T00:12:16;8.77;;;4.25;;
43962;SDS011;29622;45.534;9.242;2023-04-24T00:17:17;8.25;;;4.15;;
43962;SDS011;29622;45.534;9.242;2023-04-24T00:22:21;7.60;;;3.63;;
43962;SDS011;29622;45.534;9.242;2023-04-24T00:27:22;12.20;;;4.43;;
43962;SDS011;29622;45.534;9.242;2023-04-24T00:32:23;12.40;;;4.50;;
43962;SDS011;29622;45.534;9.242;2023-04-24T00:37:24;8.88;;;4.32;;
43962;SDS011;29622;45.534;9.242;2023-04-24T00:42:25;10.57;;;4.63;;
43962;SDS011;29622;45.534;9.242;2023-04-24T00:47:26;8.80;;;4.15;;
43962;SDS011;29622;45.534;9.242;2023-04-24T00:52:28;8.23;;;4.00;;
43962;SDS011;29622;45.534;9.242;2023-04-24T00:57:31;5.63;;;3.25;;
43962;SDS011;29622;45.534;9.242;2023-04-24T01:02:32;6.70;;;3.67;;
43962;SDS011;29622;45.534;9.242;2023-04-24T01:07:34;11.10;;;4.85;;
43962;SDS011;29622;45.534;9.242;2023-04-24T01:12:35;9.27;;;3.60;;
43962;SDS011;29622;45.534;9.242;2023-04-24T01:17:37;8.65;;;4.70;;
43962;SDS011;29622;45.534;9.242;2023-04-24T01:22:39;7.70;;;3.78;;
43962;SDS011;29622;45.534;9.242;2023-04-24T01:27:40;8.15;;;4.35;;
43962;SDS011;29622;45.534;9.242;2023-04-24T01:32:41;8.45;;;4.97;;
43962;SDS011;29622;45.534;9.242;2023-04-24T01:37:44;13.07;;;5.15;;
43962;SDS011;29622;45.534;9.242;2023-04-24T01:42:45;8.80;;;4.78;;
43962;SDS011;29622;45.534;9.242;2023-04-24T01:47:45;7.55;;;3.60;;
43962;SDS011;29622;45.534;9.242;2023-04-24T01:52:47;9.90;;;4.60;;
43962;SDS011;29622;45.534;9.242;2023-04-24T01:57:49;7.15;;;4.60;;
43962;SDS011;29622;45.534;9.242;2023-04-24T02:02:53;9.15;;;4.80;;
43962;SDS011;29622;45.534;9.242;2023-04-24T02:07:53;12.45;;;4.60;;
43962;SDS011;29622;45.534;9.242;2023-04-24T02:12:54;6.18;;;3.33;;
43962;SDS011;29622;45.534;9.242;2023-04-24T02:17:57;12.82;;;5.22;;
43962;SDS011;29622;45.534;9.242;2023-04-24T02:22:58;6.72;;;3.38;;
43962;SDS011;29622;45.534;9.242;2023-04-24T02:27:59;8.48;;;3.83;;
43962;SDS011;29622;45.534;9.242;2023-04-24T02:33:00;11.63;;;5.57;;
43962;SDS011;29622;45.534;9.242;2023-04-24T02:38:01;5.93;;;3.75;;
43962;SDS011;29622;45.534;9.242;2023-04-24T02:43:03;13.20;;;4.68;;
43962;SDS011;29622;45.534;9.242;2023-04-24T02:48:04;10.85;;;4.88;;
43962;SDS011;29622;45.534;9.242;2023-04-24T02:53:04;16.25;;;4.72;;
43962;SDS011;29622;45.534;9.242;2023-04-24T02:58:05;27.70;;;6.10;;
43962;SDS011;29622;45.534;9.242;2023-04-24T03:03:06;8.30;;;4.45;;
43962;SDS011;29622;45.534;9.242;2023-04-24T03:08:07;11.02;;;4.80;;
43962;SDS011;29622;45.534;9.242;2023-04-24T03:13:07;8.48;;;4.15;;
43962;SDS011;29622;45.534;9.242;2023-04-24T03:18:08;5.78;;;3.90;;
43962;SDS011;29622;45.534;9.242;2023-04-24T03:23:10;8.52;;;4.65;;
43962;SDS011;29622;45.534;9.242;2023-04-24T03:28:11;8.65;;;4.75;;
43962;SDS011;29622;45.534;9.242;2023-04-24T03:33:16;9.80;;;4.82;;
43962;SDS011;29622;45.534;9.242;2023-04-24T03:38:27;9.18;;;4.40;;
43962;SDS011;29622;45.534;9.242;2023-04-24T03:43:27;7.63;;;4.88;;
43962;SDS011;29622;45.534;9.242;2023-04-24T03:48:30;11.07;;;5.05;;
43962;SDS011;29622;45.534;9.242;2023-04-24T03:53:31;7.88;;;4.45;;
43962;SDS011;29622;45.534;9.242;2023-04-24T03:58:33;7.78;;;4.30;;
43962;SDS011;29622;45.534;9.242;2023-04-24T04:03:34;7.35;;;4.00;;
43962;SDS011;29622;45.534;9.242;2023-04-24T04:08:35;8.05;;;3.92;;
43962;SDS011;29622;45.534;9.242;2023-04-24T04:13:36;7.45;;;3.72;;
43962;SDS011;29622;45.534;9.242;2023-04-24T04:18:37;9.30;;;3.78;;
43962;SDS011;29622;45.534;9.242;2023-04-24T04:23:40;8.75;;;3.47;;
43962;SDS011;29622;45.534;9.242;2023-04-24T04:28:50;6.80;;;3.40;;
43962;SDS011;29622;45.534;9.242;2023-04-24T04:33:51;7.30;;;2.83;;
43962;SDS011;29622;45.534;9.242;2023-04-24T04:38:52;4.97;;;2.85;;
43962;SDS011;29622;45.534;9.242;2023-04-24T04:44:14;15.18;;;4.13;;
43962;SDS011;29622;45.534;9.242;2023-04-24T04:49:18;13.23;;;3.60;;
43962;SDS011;29622;45.534;9.242;2023-04-24T04:54:21;4.13;;;2.33;;
43962;SDS011;29622;45.534;9.242;2023-04-24T04:59:22;7.10;;;2.03;;
43962;SDS011;29622;45.534;9.242;2023-04-24T05:04:28;8.52;;;2.10;;
43962;SDS011;29622;45.534;9.242;2023-04-24T05:09:29;3.88;;;1.92;;
43962;SDS011;29622;45.534;9.242;2023-04-24T05:14:35;6.75;;;2.47;;
43962;SDS011;29622;45.534;9.242;2023-04-24T05:19:36;11.20;;;2.33;;
43962;SDS011;29622;45.534;9.242;2023-04-24T05:24:39;3.67;;;1.88;;
43962;SDS011;29622;45.534;9.242;2023-04-24T05:29:39;4.75;;;2.50;;
43962;SDS011;29622;45.534;9.242;2023-04-24T05:34:42;4.32;;;2.67;;
43962;SDS011;29622;45.534;9.242;2023-04-24T05:39:43;11.20;;;4.45;;
43962;SDS011;29622;45.534;9.242;2023-04-24T05:44:43;8.48;;;2.28;;
43962;SDS011;29622;45.534;9.242;2023-04-24T05:49:44;6.55;;;2.78;;
43962;SDS011;29622;45.534;9.242;2023-04-24T05:54:45;5.05;;;2.70;;
43962;SDS011;29622;45.534;9.242;2023-04-24T05:59:49;7.65;;;2.80;;
43962;SDS011;29622;45.534;9.242;2023-04-24T06:04:52;7.60;;;2.47;;
43962;SDS011;29622;45.534;9.242;2023-04-24T06:09:53;7.55;;;3.50;;
43962;SDS011;29622;45.534;9.242;2023-04-24T06:14:56;7.28;;;4.15;;
43962;SDS011;29622;45.534;9.242;2023-04-24T06:20:03;11.02;;;4.60;;
43962;SDS011;29622;45.534;9.242;2023-04-24T06:25:06;8.23;;;3.13;;
43962;SDS011;29622;45.534;9.242;2023-04-24T06:30:07;5.05;;;2.70;;
43962;SDS011;29622;45.534;9.242;2023-04-24T06:35:08;6.18;;;3.38;;
43962;SDS011;29622;45.534;9.242;2023-04-24T06:40:10;3.92;;;2.55;;
43962;SDS011;29622;45.534;9.242;2023-04-24T06:45:11;7.47;;;2.45;;
43962;SDS011;29622;45.534;9.242;2023-04-24T06:50:11;14.85;;;2.67;;
43962;SDS011;29622;45.534;9.242;2023-04-24T06:55:12;9.82;;;3.22;;
43962;SDS011;29622;45.534;9.242;2023-04-24T07:00:15;6.70;;;2.83;;
43962;SDS011;29622;45.534;9.242;2023-04-24T07:05:16;17.30;;;4.78;;
43962;SDS011;29622;45.534;9.242;2023-04-24T07:10:19;6.85;;;2.25;;
43962;SDS011;29622;45.534;9.242;2023-04-24T07:15:21;5.20;;;3.00;;
43962;SDS011;29622;45.534;9.242;2023-04-24T07:20:23;3.13;;;1.88;;
43962;SDS011;29622;45.534;9.242;2023-04-24T07:25:24;5.53;;;2.70;;
43962;SDS011;29622;45.534;9.242;2023-04-24T07:30:24;6.75;;;1.90;;
43962;SDS011;29622;45.534;9.242;2023-04-24T07:35:26;3.92;;;2.10;;
43962;SDS011;29622;45.534;9.242;2023-04-24T07:40:27;7.20;;;2.80;;
43962;SDS011;29622;45.534;9.242;2023-04-24T07:45:28;6.35;;;3.13;;
43962;SDS011;29622;45.534;9.242;2023-04-24T07:50:29;17.15;;;3.42;;
43962;SDS011;29622;45.534;9.242;2023-04-24T07:55:30;10.90;;;3.00;;
43962;SDS011;29622;45.534;9.242;2023-04-24T08:00:30;12.00;;;3.83;;
43962;SDS011;29622;45.534;9.242;2023-04-24T08:05:31;5.70;;;3.42;;
43962;SDS011;29622;45.534;9.242;2023-04-24T08:10:32;6.35;;;3.55;;
43962;SDS011;29622;45.534;9.242;2023-04-24T08:15:33;8.65;;;2.80;;
43962;SDS011;29622;45.534;9.242;2023-04-24T08:20:36;5.00;;;2.35;;
43962;SDS011;29622;45.534;9.242;2023-04-24T08:25:36;3.63;;;1.58;;
43962;SDS011;29622;45.534;9.242;2023-04-24T08:30:37;3.60;;;1.50;;
43962;SDS011;29622;45.534;9.242;2023-04-24T08:35:38;5.32;;;2.15;;
43962;SDS011;29622;45.534;9.242;2023-04-24T08:40:39;4.10;;;2.13;;
43962;SDS011;29622;45.534;9.242;2023-04-24T08:45:40;8.95;;;2.40;;
43962;SDS011;29622;45.534;9.242;2023-04-24T08:50:40;4.82;;;2.10;;
43962;SDS011;29622;45.534;9.242;2023-04-24T08:55:43;12.02;;;3.90;;
43962;SDS011;29622;45.534;9.242;2023-04-24T09:00:47;4.32;;;1.92;;
43962;SDS011;29622;45.534;9.242;2023-04-24T09:05:48;2.40;;;1.50;;
43962;SDS011;29622;45.534;9.242;2023-04-24T09:10:50;14.32;;;3.08;;
43962;SDS011;29622;45.534;9.242;2023-04-24T09:15:51;10.48;;;2.08;;
43962;SDS011;29622;45.534;9.242;2023-04-24T09:26:01;8.50;;;1.93;;
43962;SDS011;29622;45.534;9.242;2023-04-24T09:36:18;5.13;;;1.80;;
43962;SDS011;29622;45.534;9.242;2023-04-24T09:41:18;2.67;;;1.33;;
43962;SDS011;29622;45.534;9.242;2023-04-24T09:46:19;6.13;;;2.47;;
43962;SDS011;29622;45.534;9.242;2023-04-24T09:51:34;3.80;;;1.60;;
43962;SDS011;29622;45.534;9.242;2023-04-24T09:56:41;7.25;;;1.50;;
43962;SDS011;29622;45.534;9.242;2023-04-24T10:01:44;3.63;;;1.88;;
43962;SDS011;29622;45.534;9.242;2023-04-24T10:06:46;3.65;;;1.65;;
43962;SDS011;29622;45.534;9.242;2023-04-24T10:11:50;4.22;;;1.38;;
43962;SDS011;29622;45.534;9.242;2023-04-24T10:16:54;5.38;;;1.63;;
43962;SDS011;29622;45.534;9.242;2023-04-24T10:21:56;3.70;;;1.45;;
43962;SDS011;29622;45.534;9.242;2023-04-24T10:26:59;6.97;;;2.00;;
43962;SDS011;29622;45.534;9.242;2023-04-24T10:32:01;8.52;;;2.30;;
43962;SDS011;29622;45.534;9.242;2023-04-24T10:37:02;4.05;;;1.58;;
43962;SDS011;29622;45.534;9.242;2023-04-24T10:42:13;2.72;;;1.33;;
43962;SDS011;29622;45.534;9.242;2023-04-24T10:47:16;6.38;;;1.52;;
43962;SDS011;29622;45.534;9.242;2023-04-24T10:52:17;5.82;;;1.70;;
43962;SDS011;29622;45.534;9.242;2023-04-24T11:02:20;1.63;;;0.75;;
43962;SDS011;29622;45.534;9.242;2023-04-24T11:08:09;5.80;;;1.13;;
43962;SDS011;29622;45.534;9.242;2023-04-24T11:13:16;2.83;;;0.82;;
43962;SDS011;29622;45.534;9.242;2023-04-24T11:18:21;1.10;;;0.60;;
43962;SDS011;29622;45.534;9.242;2023-04-24T11:23:23;1.58;;;0.70;;
43962;SDS011;29622;45.534;9.242;2023-04-24T11:28:23;7.05;;;1.90;;
43962;SDS011;29622;45.534;9.242;2023-04-24T11:33:24;3.92;;;0.98;;
43962;SDS011;29622;45.534;9.242;2023-04-24T11:38:25;1.65;;;0.82;;
43962;SDS011;29622;45.534;9.242;2023-04-24T11:43:28;3.05;;;1.15;;
43962;SDS011;29622;45.534;9.242;2023-04-24T11:48:33;5.13;;;1.17;;
43962;SDS011;29622;45.534;9.242;2023-04-24T11:53:36;1.20;;;0.50;;
43962;SDS011;29622;45.534;9.242;2023-04-24T11:58:37;7.70;;;1.10;;
43962;SDS011;29622;45.534;9.242;2023-04-24T12:03:39;2.78;;;0.60;;
43962;SDS011;29622;45.534;9.242;2023-04-24T12:08:45;1.80;;;0.70;;
43962;SDS011;29622;45.534;9.242;2023-04-24T12:13:47;1.67;;;0.80;;
43962;SDS011;29622;45.534;9.242;2023-04-24T12:18:50;4.10;;;0.90;;
43962;SDS011;29622;45.534;9.242;2023-04-24T12:23:54;2.53;;;0.80;;
43962;SDS011;29622;45.534;9.242;2023-04-24T12:28:55;2.95;;;0.65;;
43962;SDS011;29622;45.534;9.242;2023-04-24T12:34:01;2.50;;;0.75;;
43962;SDS011;29622;45.534;9.242;2023-04-24T12:39:01;0.75;;;0.50;;
43962;SDS011;29622;45.534;9.242;2023-04-24T12:44:02;1.70;;;0.82;;
43962;SDS011;29622;45.534;9.242;2023-04-24T12:49:03;1.08;;;0.50;;
43962;SDS011;29622;45.534;9.242;2023-04-24T12:54:03;2.15;;;0.77;;
43962;SDS011;29622;45.534;9.242;2023-04-24T12:59:04;0.60;;;0.30;;
43962;SDS011;29622;45.534;9.242;2023-04-24T13:04:05;1.63;;;0.80;;
43962;SDS011;29622;45.534;9.242;2023-04-24T13:09:06;0.90;;;0.60;;
43962;SDS011;29622;45.534;9.242;2023-04-24T13:14:07;1.35;;;0.57;;
43962;SDS011;29622;45.534;9.242;2023-04-24T13:19:07;3.75;;;0.60;;
43962;SDS011;29622;45.534;9.242;2023-04-24T13:24:08;1.20;;;0.47;;
43962;SDS011;29622;45.534;9.242;2023-04-24T13:29:10;6.30;;;1.15;;
43962;SDS011;29622;45.534;9.242;2023-04-24T13:34:11;0.65;;;0.38;;
43962;SDS011;29622;45.534;9.242;2023-04-24T13:39:11;1.35;;;0.55;;
43962;SDS011;29622;45.534;9.242;2023-04-24T13:44:12;6.30;;;0.60;;
43962;SDS011;29622;45.534;9.242;2023-04-24T13:49:13;4.25;;;0.65;;
43962;SDS011;29622;45.534;9.242;2023-04-24T13:54:14;1.92;;;0.40;;
43962;SDS011;29622;45.534;9.242;2023-04-24T13:59:15;0.75;;;0.20;;
43962;SDS011;29622;45.534;9.242;2023-04-24T14:04:16;2.08;;;0.30;;
43962;SDS011;29622;45.534;9.242;2023-04-24T14:09:16;1.80;;;0.57;;
43962;SDS011;29622;45.534;9.242;2023-04-24T14:14:17;3.90;;;0.57;;
43962;SDS011;29622;45.534;9.242;2023-04-24T14:19:18;3.03;;;0.30;;
43962;SDS011;29622;45.534;9.242;2023-04-24T14:24:18;0.40;;;0.20;;
43962;SDS011;29622;45.534;9.242;2023-04-24T14:29:19;1.80;;;0.30;;
43962;SDS011;29622;45.534;9.242;2023-04-24T14:34:20;2.72;;;0.30;;
43962;SDS011;29622;45.534;9.242;2023-04-24T14:39:20;0.52;;;0.10;;
43962;SDS011;29622;45.534;9.242;2023-04-24T14:44:21;0.70;;;0.25;;
43962;SDS011;29622;45.534;9.242;2023-04-24T14:49:22;0.73;;;0.52;;
43962;SDS011;29622;45.534;9.242;2023-04-24T14:54:23;0.85;;;0.40;;
43962;SDS011;29622;45.534;9.242;2023-04-24T14:59:25;0.60;;;0.40;;
43962;SDS011;29622;45.534;9.242;2023-04-24T15:04:25;0.90;;;0.38;;
43962;SDS011;29622;45.534;9.242;2023-04-24T15:09:27;0.38;;;0.20;;
43962;SDS011;29622;45.534;9.242;2023-04-24T15:14:28;0.47;;;0.10;;
43962;SDS011;29622;45.534;9.242;2023-04-24T15:19:29;2.33;;;0.20;;
43962;SDS011;29622;45.534;9.242;2023-04-24T15:24:30;0.38;;;0.30;;
43962;SDS011;29622;45.534;9.242;2023-04-24T15:29:31;2.30;;;0.43;;
43962;SDS011;29622;45.534;9.242;2023-04-24T15:34:32;1.20;;;0.30;;
43962;SDS011;29622;45.534;9.242;2023-04-24T15:39:32;1.88;;;0.50;;
43962;SDS011;29622;45.534;9.242;2023-04-24T15:44:33;0.25;;;0.20;;
43962;SDS011;29622;45.534;9.242;2023-04-24T15:49:34;2.65;;;0.40;;
43962;SDS011;29622;45.534;9.242;2023-04-24T15:54:34;1.55;;;0.40;;
43962;SDS011;29622;45.534;9.242;2023-04-24T15:59:35;0.85;;;0.28;;
43962;SDS011;29622;45.534;9.242;2023-04-24T16:04:36;4.22;;;0.63;;
43962;SDS011;29622;45.534;9.242;2023-04-24T16:09:36;0.85;;;0.40;;
43962;SDS011;29622;45.534;9.242;2023-04-24T16:14:37;1.40;;;0.47;;
43962;SDS011;29622;45.534;9.242;2023-04-24T16:19:38;2.00;;;0.30;;
43962;SDS011;29622;45.534;9.242;2023-04-24T16:24:39;2.20;;;0.40;;
43962;SDS011;29622;45.534;9.242;2023-04-24T16:29:39;0.63;;;0.17;;
43962;SDS011;29622;45.534;9.242;2023-04-24T16:34:40;0.65;;;0.30;;
43962;SDS011;29622;45.534;9.242;2023-04-24T16:39:41;0.70;;;0.40;;
43962;SDS011;29622;45.534;9.242;2023-04-24T16:44:44;0.45;;;0.30;;
43962;SDS011;29622;45.534;9.242;2023-04-24T16:49:44;6.72;;;0.80;;
43962;SDS011;29622;45.534;9.242;2023-04-24T16:54:45;1.88;;;0.77;;
43962;SDS011;29622;45.534;9.242;2023-04-24T16:59:46;1.23;;;0.60;;
43962;SDS011;29622;45.534;9.242;2023-04-24T17:04:46;0.52;;;0.30;;
43962;SDS011;29622;45.534;9.242;2023-04-24T17:09:47;1.08;;;0.40;;
43962;SDS011;29622;45.534;9.242;2023-04-24T17:14:48;1.17;;;0.50;;
43962;SDS011;29622;45.534;9.242;2023-04-24T17:19:48;0.55;;;0.30;;
43962;SDS011;29622;45.534;9.242;2023-04-24T17:24:50;2.58;;;0.30;;
43962;SDS011;29622;45.534;9.242;2023-04-24T17:29:50;0.57;;;0.30;;
43962;SDS011;29622;45.534;9.242;2023-04-24T17:34:51;0.57;;;0.40;;
43962;SDS011;29622;45.534;9.242;2023-04-24T17:39:52;1.00;;;0.60;;
43962;SDS011;29622;45.534;9.242;2023-04-24T17:44:53;1.08;;;0.40;;
43962;SDS011;29622;45.534;9.242;2023-04-24T17:49:53;3.47;;;0.65;;
43962;SDS011;29622;45.534;9.242;2023-04-24T17:54:54;1.23;;;0.60;;
43962;SDS011;29622;45.534;9.242;2023-04-24T17:59:54;2.55;;;1.55;;
43962;SDS011;29622;45.534;9.242;2023-04-24T18:04:56;2.60;;;0.88;;
43962;SDS011;29622;45.534;9.242;2023-04-24T18:09:56;2.72;;;0.98;;
43962;SDS011;29622;45.534;9.242;2023-04-24T18:14:57;1.60;;;0.85;;
43962;SDS011;29622;45.534;9.242;2023-04-24T18:19:58;9.02;;;1.20;;
43962;SDS011;29622;45.534;9.242;2023-04-24T18:24:59;3.42;;;0.88;;
43962;SDS011;29622;45.534;9.242;2023-04-24T18:30:00;2.78;;;1.35;;
43962;SDS011;29622;45.534;9.242;2023-04-24T18:35:01;5.60;;;1.30;;
43962;SDS011;29622;45.534;9.242;2023-04-24T18:40:03;11.02;;;1.90;;
43962;SDS011;29622;45.534;9.242;2023-04-24T18:45:04;4.80;;;0.88;;
43962;SDS011;29622;45.534;9.242;2023-04-24T18:50:05;4.30;;;1.15;;
43962;SDS011;29622;45.534;9.242;2023-04-24T18:55:06;4.90;;;1.27;;
43962;SDS011;29622;45.534;9.242;2023-04-24T19:00:08;5.32;;;1.35;;
43962;SDS011;29622;45.534;9.242;2023-04-24T19:05:10;4.65;;;1.30;;
43962;SDS011;29622;45.534;9.242;2023-04-24T19:10:11;3.80;;;1.73;;
43962;SDS011;29622;45.534;9.242;2023-04-24T19:15:12;4.70;;;1.58;;
43962;SDS011;29622;45.534;9.242;2023-04-24T19:20:12;3.85;;;1.80;;
43962;SDS011;29622;45.534;9.242;2023-04-24T19:25:13;5.43;;;1.30;;
43962;SDS011;29622;45.534;9.242;2023-04-24T19:30:15;5.47;;;1.30;;
43962;SDS011;29622;45.534;9.242;2023-04-24T19:35:15;5.88;;;1.63;;
43962;SDS011;29622;45.534;9.242;2023-04-24T19:40:16;6.75;;;2.10;;
43962;SDS011;29622;45.534;9.242;2023-04-24T19:45:17;5.35;;;1.17;;
43962;SDS011;29622;45.534;9.242;2023-04-24T19:50:18;6.32;;;1.65;;
43962;SDS011;29622;45.534;9.242;2023-04-24T19:55:19;6.65;;;1.90;;
43962;SDS011;29622;45.534;9.242;2023-04-24T20:00:19;8.02;;;1.65;;
43962;SDS011;29622;45.534;9.242;2023-04-24T20:05:20;4.20;;;1.50;;
43962;SDS011;29622;45.534;9.242;2023-04-24T20:10:21;4.07;;;1.63;;
43962;SDS011;29622;45.534;9.242;2023-04-24T20:15:22;4.53;;;1.25;;
43962;SDS011;29622;45.534;9.242;2023-04-24T20:20:23;2.58;;;1.30;;
43962;SDS011;29622;45.534;9.242;2023-04-24T20:25:26;7.22;;;1.90;;
43962;SDS011;29622;45.534;9.242;2023-04-24T20:30:27;2.67;;;1.45;;
43962;SDS011;29622;45.534;9.242;2023-04-24T20:35:28;2.22;;;1.13;;
43962;SDS011;29622;45.534;9.242;2023-04-24T20:40:29;4.32;;;2.08;;
43962;SDS011;29622;45.534;9.242;2023-04-24T20:45:29;4.68;;;1.50;;
43962;SDS011;29622;45.534;9.242;2023-04-24T20:50:30;8.80;;;3.65;;
43962;SDS011;29622;45.534;9.242;2023-04-24T20:55:32;9.23;;;3.95;;
43962;SDS011;29622;45.534;9.242;2023-04-24T21:00:34;5.53;;;3.00;;
43962;SDS011;29622;45.534;9.242;2023-04-24T21:05:34;5.13;;;2.08;;
43962;SDS011;29622;45.534;9.242;2023-04-24T21:10:35;5.20;;;2.70;;
43962;SDS011;29622;45.534;9.242;2023-04-24T21:15:36;5.43;;;2.78;;
43962;SDS011;29622;45.534;9.242;2023-04-24T21:20:37;6.85;;;3.00;;
43962;SDS011;29622;45.534;9.242;2023-04-24T21:25:37;7.25;;;3.65;;
43962;SDS011;29622;45.534;9.242;2023-04-24T21:30:38;9.73;;;4.80;;
43962;SDS011;29622;45.534;9.242;2023-04-24T21:35:39;7.55;;;4.25;;
43962;SDS011;29622;45.534;9.242;2023-04-24T21:40:40;7.55;;;4.38;;
43962;SDS011;29622;45.534;9.242;2023-04-24T21:45:40;8.55;;;3.80;;
43962;SDS011;29622;45.534;9.242;2023-04-24T21:50:41;6.68;;;3.42;;
43962;SDS011;29622;45.534;9.242;2023-04-24T21:55:43;9.35;;;4.15;;
43962;SDS011;29622;45.534;9.242;2023-04-24T22:00:44;5.85;;;3.13;;
43962;SDS011;29622;45.534;9.242;2023-04-24T22:05:46;6.72;;;3.92;;
43962;SDS011;29622;45.534;9.242;2023-04-24T22:10:46;6.63;;;3.10;;
43962;SDS011;29622;45.534;9.242;2023-04-24T22:15:48;5.95;;;3.30;;
43962;SDS011;29622;45.534;9.242;2023-04-24T22:20:49;6.50;;;2.50;;
43962;SDS011;29622;45.534;9.242;2023-04-24T22:25:50;5.45;;;2.63;;
43962;SDS011;29622;45.534;9.242;2023-04-24T22:30:52;5.53;;;2.83;;
43962;SDS011;29622;45.534;9.242;2023-04-24T22:35:53;4.28;;;2.50;;
43962;SDS011;29622;45.534;9.242;2023-04-24T22:40:54;3.97;;;2.40;;
43962;SDS011;29622;45.534;9.242;2023-04-24T22:45:55;4.93;;;2.38;;
43962;SDS011;29622;45.534;9.242;2023-04-24T22:50:56;8.30;;;2.65;;
43962;SDS011;29622;45.534;9.242;2023-04-24T22:55:57;4.72;;;2.88;;
43962;SDS011;29622;45.534;9.242;2023-04-24T23:00:57;4.40;;;1.75;;
43962;SDS011;29622;45.534;9.242;2023-04-24T23:05:58;3.22;;;1.92;;
43962;SDS011;29622;45.534;9.242;2023-04-24T23:10:59;3.17;;;1.75;;
43962;SDS011;29622;45.534;9.242;2023-04-24T23:16:00;6.68;;;1.77;;
43962;SDS011;29622;45.534;9.242;2023-04-24T23:21:01;9.20;;;2.05;;
43962;SDS011;29622;45.534;9.242;2023-04-24T23:26:02;4.50;;;1.48;;
43962;SDS011;29622;45.534;9.242;2023-04-24T23:31:03;6.32;;;2.97;;
43962;SDS011;29622;45.534;9.242;2023-04-24T23:36:04;7.15;;;2.35;;
43962;SDS011;29622;45.534;9.242;2023-04-24T23:41:05;7.18;;;2.15;;
43962;SDS011;29622;45.534;9.242;2023-04-24T23:46:06;4.95;;;1.70;;
43962;SDS011;29622;45.534;9.242;2023-04-24T23:51:06;8.07;;;2.90;;
43962;SDS011;29622;45.534;9.242;2023-04-24T23:56:07;4.20;;;2.30;;
